Airport ID:K2O1
Update Time (UTC):23/05/2022 02:00
Wind Speed (Knots):11
Wind Direction (Magnetic):230
Temperature (°C):21
Dew Point (°C):2
Humidity (%):26
Altimeter (inHg):30.02
Density Altitude (Feet):4900
Visibility:10+
Clouds (Hundreds of feet):***
Present Weather:
METAR:METAR K2O1 230200Z AUTO 24011KT 10SM 21/01 A3002 RMK A01

The data displayed is for advisory purposes only and is not to be used for flight planning or operations.